sensor_id;sensor_type;location;lat;lon;timestamp;pressure;altitude;pressure_sealevel;temperature;humidity
54407;BME280;40313;50.308;30.374;2024-01-11T16:08:38;98652.84;;;-0.04;100.00
54407;BME280;40313;50.308;30.374;2024-01-11T16:11:12;98639.97;;;-0.02;100.00
54407;BME280;40313;50.308;30.374;2024-01-11T16:13:46;98636.50;;;0.01;100.00
54407;BME280;40313;50.308;30.374;2024-01-11T16:16:19;98625.63;;;0.21;100.00
54407;BME280;40313;50.308;30.374;2024-01-11T16:18:52;98641.44;;;0.07;100.00
54407;BME280;40313;50.308;30.374;2024-01-11T16:21:25;98640.78;;;0.28;100.00
54407;BME280;40313;50.308;30.374;2024-01-11T16:24:00;98622.09;;;0.25;100.00
54407;BME280;40313;50.308;30.374;2024-01-11T16:26:36;98640.78;;;0.00;100.00
54407;BME280;40313;50.308;30.374;2024-01-11T16:29:12;98597.16;;;0.02;100.00
54407;BME280;40313;50.308;30.374;2024-01-11T16:31:39;98611.00;;;-0.04;100.00
54407;BME280;40313;50.308;30.374;2024-01-11T16:34:09;98641.16;;;0.16;100.00
54407;BME280;40313;50.308;30.374;2024-01-11T16:36:39;98628.94;;;-0.04;100.00
54407;BME280;40313;50.308;30.374;2024-01-11T16:39:11;98634.19;;;0.20;100.00
54407;BME280;40313;50.308;30.374;2024-01-11T16:41:49;98586.13;;;-0.02;100.00
54407;BME280;40313;50.308;30.374;2024-01-11T16:44:20;98599.88;;;0.24;100.00
54407;BME280;40313;50.308;30.374;2024-01-11T16:46:47;98620.25;;;0.28;100.00
54407;BME280;40313;50.308;30.374;2024-01-11T16:49:13;98626.16;;;0.32;100.00
54407;BME280;40313;50.308;30.374;2024-01-11T16:51:44;98583.38;;;0.04;100.00
54407;BME280;40313;50.308;30.374;2024-01-11T16:54:21;98594.03;;;0.47;100.00
54407;BME280;40313;50.308;30.374;2024-01-11T16:56:50;98617.56;;;0.33;100.00
54407;BME280;40313;50.308;30.374;2024-01-11T16:59:24;98572.69;;;-0.10;100.00
54407;BME280;40313;50.308;30.374;2024-01-11T17:01:52;98578.50;;;-0.04;100.00
54407;BME280;40313;50.308;30.374;2024-01-11T17:04:28;98600.09;;;0.17;100.00
54407;BME280;40313;50.308;30.374;2024-01-11T17:07:17;98606.88;;;0.19;100.00
54407;BME280;40313;50.308;30.374;2024-01-11T17:09:47;98572.13;;;0.08;100.00
54407;BME280;40313;50.308;30.374;2024-01-11T17:12:14;98574.94;;;0.01;100.00
54407;BME280;40313;50.308;30.374;2024-01-11T17:14:51;98606.41;;;0.34;100.00
54407;BME280;40313;50.308;30.374;2024-01-11T17:17:21;98564.81;;;0.24;100.00
54407;BME280;40313;50.308;30.374;2024-01-11T17:19:50;98559.53;;;0.02;100.00
54407;BME280;40313;50.308;30.374;2024-01-11T17:22:20;98604.34;;;0.45;100.00
54407;BME280;40313;50.308;30.374;2024-01-11T17:25:00;98582.34;;;0.38;100.00
54407;BME280;40313;50.308;30.374;2024-01-11T17:27:33;98590.34;;;0.29;100.00
54407;BME280;40313;50.308;30.374;2024-01-11T17:30:07;98559.72;;;0.23;100.00
54407;BME280;40313;50.308;30.374;2024-01-11T17:32:35;98546.13;;;-0.08;100.00
54407;BME280;40313;50.308;30.374;2024-01-11T17:35:02;98603.22;;;0.27;100.00
54407;BME280;40313;50.308;30.374;2024-01-11T17:37:34;98584.53;;;0.22;100.00
54407;BME280;40313;50.308;30.374;2024-01-11T17:40:11;98583.38;;;0.32;100.00
54407;BME280;40313;50.308;30.374;2024-01-11T17:42:46;98576.28;;;0.12;100.00
54407;BME280;40313;50.308;30.374;2024-01-11T17:45:18;98581.28;;;0.44;100.00
54407;BME280;40313;50.308;30.374;2024-01-11T17:47:51;98585.44;;;0.48;100.00
54407;BME280;40313;50.308;30.374;2024-01-11T17:50:25;98574.03;;;0.30;100.00
54407;BME280;40313;50.308;30.374;2024-01-11T17:52:51;98568.28;;;0.23;100.00
54407;BME280;40313;50.308;30.374;2024-01-11T17:55:21;98590.84;;;0.40;100.00
54407;BME280;40313;50.308;30.374;2024-01-11T17:57:48;98583.63;;;0.25;100.00
54407;BME280;40313;50.308;30.374;2024-01-11T18:00:26;98583.25;;;0.36;100.00
54407;BME280;40313;50.308;30.374;2024-01-11T18:02:55;98586.13;;;0.26;100.00
54407;BME280;40313;50.308;30.374;2024-01-11T18:05:24;98595.59;;;0.24;100.00
54407;BME280;40313;50.308;30.374;2024-01-11T18:07:52;98576.59;;;0.30;100.00
54407;BME280;40313;50.308;30.374;2024-01-11T18:10:22;98539.63;;;0.10;100.00
54407;BME280;40313;50.308;30.374;2024-01-11T18:12:49;98583.03;;;0.43;100.00
54407;BME280;40313;50.308;30.374;2024-01-11T18:15:15;98600.47;;;0.60;100.00
54407;BME280;40313;50.308;30.374;2024-01-11T18:17:44;98550.00;;;0.32;100.00
54407;BME280;40313;50.308;30.374;2024-01-11T18:20:11;98581.34;;;0.69;100.00
54407;BME280;40313;50.308;30.374;2024-01-11T18:22:37;98546.53;;;0.35;100.00
54407;BME280;40313;50.308;30.374;2024-01-11T18:25:05;98570.09;;;0.46;100.00
54407;BME280;40313;50.308;30.374;2024-01-11T18:27:40;98575.56;;;0.62;100.00
54407;BME280;40313;50.308;30.374;2024-01-11T18:30:08;98540.72;;;0.55;100.00
54407;BME280;40313;50.308;30.374;2024-01-11T18:32:35;98563.56;;;0.63;100.00
54407;BME280;40313;50.308;30.374;2024-01-11T18:35:06;98579.31;;;0.52;100.00
54407;BME280;40313;50.308;30.374;2024-01-11T18:37:34;98541.97;;;0.43;100.00
54407;BME280;40313;50.308;30.374;2024-01-11T18:40:04;98557.88;;;0.55;100.00
54407;BME280;40313;50.308;30.374;2024-01-11T18:42:32;98591.47;;;0.47;100.00
54407;BME280;40313;50.308;30.374;2024-01-11T18:45:03;98592.22;;;0.77;100.00
54407;BME280;40313;50.308;30.374;2024-01-11T18:47:30;98577.16;;;0.66;100.00
54407;BME280;40313;50.308;30.374;2024-01-11T18:50:00;98583.97;;;0.67;100.00
54407;BME280;40313;50.308;30.374;2024-01-11T18:52:29;98568.91;;;0.57;100.00
54407;BME280;40313;50.308;30.374;2024-01-11T18:54:57;98586.59;;;4.12;100.00
54407;BME280;40313;50.308;30.374;2024-01-11T18:57:31;98600.16;;;4.53;100.00
54407;BME280;40313;50.308;30.374;2024-01-11T19:00:06;98598.31;;;2.61;100.00
54407;BME280;40313;50.308;30.374;2024-01-11T19:02:41;98595.34;;;2.28;100.00
54407;BME280;40313;50.308;30.374;2024-01-11T19:05:14;98571.47;;;2.46;100.00
54407;BME280;40313;50.308;30.374;2024-01-11T19:07:48;98570.31;;;2.53;100.00
54407;BME280;40313;50.308;30.374;2024-01-11T19:10:16;98563.75;;;2.02;100.00
54407;BME280;40313;50.308;30.374;2024-01-11T19:12:43;98581.31;;;2.57;100.00
54407;BME280;40313;50.308;30.374;2024-01-11T19:15:21;98551.41;;;2.54;100.00
54407;BME280;40313;50.308;30.374;2024-01-11T19:17:48;98551.41;;;2.54;100.00
54407;BME280;40313;50.308;30.374;2024-01-11T19:20:15;98573.31;;;2.42;100.00
54407;BME280;40313;50.308;30.374;2024-01-11T19:22:44;98546.88;;;2.39;100.00
54407;BME280;40313;50.308;30.374;2024-01-11T19:25:10;98551.34;;;2.34;100.00
54407;BME280;40313;50.308;30.374;2024-01-11T19:27:38;98542.59;;;2.17;100.00
54407;BME280;40313;50.308;30.374;2024-01-11T19:30:06;98566.53;;;2.40;100.00
54407;BME280;40313;50.308;30.374;2024-01-11T19:32:34;98586.38;;;2.38;100.00
54407;BME280;40313;50.308;30.374;2024-01-11T19:35:01;98566.50;;;2.41;100.00
54407;BME280;40313;50.308;30.374;2024-01-11T19:37:28;98551.78;;;2.23;100.00
54407;BME280;40313;50.308;30.374;2024-01-11T19:39:54;98565.19;;;2.09;100.00
54407;BME280;40313;50.308;30.374;2024-01-11T19:42:21;98579.19;;;2.24;100.00
54407;BME280;40313;50.308;30.374;2024-01-11T19:44:48;98562.00;;;2.02;100.00
54407;BME280;40313;50.308;30.374;2024-01-11T19:47:14;98570.91;;;2.38;100.00
54407;BME280;40313;50.308;30.374;2024-01-11T19:49:45;98603.00;;;2.29;100.00
54407;BME280;40313;50.308;30.374;2024-01-11T19:52:12;98608.44;;;2.44;100.00
54407;BME280;40313;50.308;30.374;2024-01-11T19:54:38;98593.63;;;1.82;100.00
54407;BME280;40313;50.308;30.374;2024-01-11T19:57:05;98586.03;;;1.79;100.00
54407;BME280;40313;50.308;30.374;2024-01-11T19:59:33;98582.97;;;1.46;100.00
54407;BME280;40313;50.308;30.374;2024-01-11T20:01:59;98578.00;;;1.41;100.00
54407;BME280;40313;50.308;30.374;2024-01-11T20:04:26;98604.09;;;1.54;100.00
54407;BME280;40313;50.308;30.374;2024-01-11T20:06:54;98588.84;;;1.49;100.00
54407;BME280;40313;50.308;30.374;2024-01-11T20:09:21;98579.06;;;1.59;100.00
54407;BME280;40313;50.308;30.374;2024-01-11T20:11:48;98587.63;;;1.36;100.00
54407;BME280;40313;50.308;30.374;2024-01-11T20:14:14;98604.09;;;1.54;100.00
54407;BME280;40313;50.308;30.374;2024-01-11T20:16:41;98632.66;;;1.70;100.00
54407;BME280;40313;50.308;30.374;2024-01-11T20:19:08;98620.47;;;1.51;100.00
54407;BME280;40313;50.308;30.374;2024-01-11T20:21:35;98636.78;;;1.74;100.00
54407;BME280;40313;50.308;30.374;2024-01-11T20:24:03;98597.56;;;1.45;100.00
54407;BME280;40313;50.308;30.374;2024-01-11T20:26:30;98616.84;;;1.57;100.00
54407;BME280;40313;50.308;30.374;2024-01-11T20:29:06;98636.59;;;1.80;100.00
54407;BME280;40313;50.308;30.374;2024-01-11T20:31:32;98596.72;;;1.45;100.00
54407;BME280;40313;50.308;30.374;2024-01-11T20:34:03;98649.88;;;1.68;100.00
54407;BME280;40313;50.308;30.374;2024-01-11T20:36:34;98676.13;;;1.52;100.00
54407;BME280;40313;50.308;30.374;2024-01-11T20:39:07;98643.56;;;2.00;100.00
54407;BME280;40313;50.308;30.374;2024-01-11T20:41:34;98754.34;;;3.32;100.00
54407;BME280;40313;50.308;30.374;2024-01-11T20:44:07;99213.50;;;6.88;100.00
54407;BME280;40313;50.308;30.374;2024-01-11T20:46:33;98774.47;;;8.09;100.00
54407;BME280;40313;50.308;30.374;2024-01-11T20:49:00;98782.53;;;9.71;100.00
54407;BME280;40313;50.308;30.374;2024-01-11T20:51:27;93545.16;;;-21.80;100.00
54407;BME280;40313;50.308;30.374;2024-01-11T20:53:53;58358.44;;;-147.05;100.00
54407;BME280;40313;50.308;30.374;2024-01-11T20:56:27;58358.44;;;-147.05;100.00
54407;BME280;40313;50.308;30.374;2024-01-11T20:58:57;58358.44;;;-147.05;100.00
54407;BME280;40313;50.308;30.374;2024-01-11T21:01:23;98861.59;;;8.15;nan
54407;BME280;40313;50.308;30.374;2024-01-11T21:03:50;98886.53;;;4.60;nan
54407;BME280;40313;50.308;30.374;2024-01-11T21:06:21;98874.16;;;4.48;nan
54407;BME280;40313;50.308;30.374;2024-01-11T21:08:47;98861.63;;;4.97;nan
54407;BME280;40313;50.308;30.374;2024-01-11T21:11:14;98856.03;;;5.07;nan
54407;BME280;40313;50.308;30.374;2024-01-11T21:13:47;98853.81;;;5.35;nan
54407;BME280;40313;50.308;30.374;2024-01-11T21:16:14;98857.44;;;3.54;nan
54407;BME280;40313;50.308;30.374;2024-01-11T21:18:40;98862.66;;;4.55;nan
54407;BME280;40313;50.308;30.374;2024-01-11T21:21:07;98887.41;;;3.34;nan
54407;BME280;40313;50.308;30.374;2024-01-11T21:23:34;98861.72;;;3.75;nan
54407;BME280;40313;50.308;30.374;2024-01-11T21:26:01;98835.66;;;4.02;nan
54407;BME280;40313;50.308;30.374;2024-01-11T21:28:27;98876.97;;;3.59;nan
54407;BME280;40313;50.308;30.374;2024-01-11T21:30:55;98885.41;;;4.06;nan
54407;BME280;40313;50.308;30.374;2024-01-11T21:33:22;98886.94;;;4.10;nan
54407;BME280;40313;50.308;30.374;2024-01-11T21:35:48;98903.34;;;3.44;nan
54407;BME280;40313;50.308;30.374;2024-01-11T21:38:16;98895.34;;;4.15;nan
54407;BME280;40313;50.308;30.374;2024-01-11T21:40:42;98897.25;;;3.46;nan
54407;BME280;40313;50.308;30.374;2024-01-11T21:43:10;98894.91;;;3.40;nan
54407;BME280;40313;50.308;30.374;2024-01-11T21:45:36;98925.81;;;3.18;nan
54407;BME280;40313;50.308;30.374;2024-01-11T21:48:05;98932.91;;;2.89;nan
54407;BME280;40313;50.308;30.374;2024-01-11T21:50:31;98948.28;;;2.42;nan
54407;BME280;40313;50.308;30.374;2024-01-11T21:52:58;98940.34;;;3.21;nan
54407;BME280;40313;50.308;30.374;2024-01-11T21:55:25;98921.22;;;3.03;nan
54407;BME280;40313;50.308;30.374;2024-01-11T21:57:51;98957.84;;;2.38;nan
54407;BME280;40313;50.308;30.374;2024-01-11T22:00:19;98974.16;;;2.12;nan
54407;BME280;40313;50.308;30.374;2024-01-11T22:02:46;98966.38;;;2.40;nan
54407;BME280;40313;50.308;30.374;2024-01-11T22:05:14;98963.84;;;1.57;nan
54407;BME280;40313;50.308;30.374;2024-01-11T22:07:41;99005.47;;;1.98;nan
54407;BME280;40313;50.308;30.374;2024-01-11T22:10:09;99008.25;;;1.34;nan
54407;BME280;40313;50.308;30.374;2024-01-11T22:12:36;99018.41;;;1.07;nan
54407;BME280;40313;50.308;30.374;2024-01-11T22:15:03;99019.19;;;1.70;nan
54407;BME280;40313;50.308;30.374;2024-01-11T22:17:29;99021.63;;;2.55;nan
54407;BME280;40313;50.308;30.374;2024-01-11T22:19:56;99040.28;;;1.52;nan
54407;BME280;40313;50.308;30.374;2024-01-11T22:22:25;99011.88;;;1.27;nan
54407;BME280;40313;50.308;30.374;2024-01-11T22:24:52;99036.38;;;1.68;nan
54407;BME280;40313;50.308;30.374;2024-01-11T22:27:18;99046.41;;;1.48;nan
54407;BME280;40313;50.308;30.374;2024-01-11T22:29:46;99060.72;;;1.57;nan
54407;BME280;40313;50.308;30.374;2024-01-11T22:32:13;99059.91;;;1.25;nan
54407;BME280;40313;50.308;30.374;2024-01-11T22:34:39;99076.44;;;1.76;nan
54407;BME280;40313;50.308;30.374;2024-01-11T22:37:06;99051.53;;;1.48;nan
54407;BME280;40313;50.308;30.374;2024-01-11T22:39:34;99079.59;;;1.55;nan
54407;BME280;40313;50.308;30.374;2024-01-11T22:42:00;99078.59;;;0.64;nan
54407;BME280;40313;50.308;30.374;2024-01-11T22:44:27;99100.91;;;1.28;nan
54407;BME280;40313;50.308;30.374;2024-01-11T22:46:54;99074.53;;;1.82;nan
54407;BME280;40313;50.308;30.374;2024-01-11T22:49:20;99100.34;;;1.49;nan
54407;BME280;40313;50.308;30.374;2024-01-11T22:51:47;99078.47;;;0.70;nan
54407;BME280;40313;50.308;30.374;2024-01-11T22:54:14;99101.81;;;0.94;nan
54407;BME280;40313;50.308;30.374;2024-01-11T22:56:42;99129.78;;;1.05;nan
54407;BME280;40313;50.308;30.374;2024-01-11T22:59:08;99143.34;;;0.00;nan
54407;BME280;40313;50.308;30.374;2024-01-11T23:04:57;99145.88;;;0.02;nan
54407;BME280;40313;50.308;30.374;2024-01-11T23:07:24;99166.91;;;-0.25;nan
54407;BME280;40313;50.308;30.374;2024-01-11T23:09:50;99170.88;;;-0.08;nan
54407;BME280;40313;50.308;30.374;2024-01-11T23:12:18;99175.81;;;-0.43;nan
54407;BME280;40313;50.308;30.374;2024-01-11T23:14:45;99164.34;;;-0.68;nan
54407;BME280;40313;50.308;30.374;2024-01-11T23:17:11;99187.06;;;-0.52;nan
54407;BME280;40313;50.308;30.374;2024-01-11T23:19:38;99153.94;;;-0.61;nan
54407;BME280;40313;50.308;30.374;2024-01-11T23:22:05;99183.78;;;0.28;nan
54407;BME280;40313;50.308;30.374;2024-01-11T23:24:32;99190.44;;;-0.49;nan
54407;BME280;40313;50.308;30.374;2024-01-11T23:26:58;99198.53;;;-0.26;nan
54407;BME280;40313;50.308;30.374;2024-01-11T23:29:26;99201.44;;;0.01;nan
54407;BME280;40313;50.308;30.374;2024-01-11T23:31:53;99206.78;;;-0.10;nan
54407;BME280;40313;50.308;30.374;2024-01-11T23:34:19;99207.25;;;-0.35;nan
54407;BME280;40313;50.308;30.374;2024-01-11T23:36:46;99214.97;;;-0.36;nan
54407;BME280;40313;50.308;30.374;2024-01-11T23:39:13;99211.06;;;-1.09;nan
54407;BME280;40313;50.308;30.374;2024-01-11T23:41:39;99243.38;;;-0.98;nan
54407;BME280;40313;50.308;30.374;2024-01-11T23:44:06;99244.34;;;-1.07;nan
54407;BME280;40313;50.308;30.374;2024-01-11T23:46:35;99223.50;;;-1.42;nan
54407;BME280;40313;50.308;30.374;2024-01-11T23:49:01;99236.50;;;-0.96;nan
54407;BME280;40313;50.308;30.374;2024-01-11T23:51:28;99239.59;;;-0.76;nan
54407;BME280;40313;50.308;30.374;2024-01-11T23:53:54;99256.53;;;-1.25;nan
54407;BME280;40313;50.308;30.374;2024-01-11T23:56:21;99271.78;;;-1.15;nan
54407;BME280;40313;50.308;30.374;2024-01-11T23:58:48;99274.09;;;-1.61;nan
